createdAt,value
2018-07-30T00:03:22.598Z,96869.31
2018-07-30T00:08:17.048Z,96872.66
2018-07-30T00:13:11.569Z,96872.19
2018-07-30T00:18:06.389Z,96870.42
2018-07-30T00:23:00.857Z,96866.45
2018-07-30T00:27:55.357Z,96873.70
2018-07-30T00:32:49.852Z,96874.60
2018-07-30T00:37:44.325Z,96870.97
2018-07-30T00:42:38.760Z,96877.09
2018-07-30T00:47:33.205Z,96874.76
2018-07-30T00:52:27.625Z,96874.57
2018-07-30T00:57:22.065Z,96872.23
2018-07-30T01:02:16.553Z,96872.02
2018-07-30T01:07:11.058Z,96878.46
2018-07-30T01:12:05.519Z,96871.13
2018-07-30T01:17:00.010Z,96878.68
2018-07-30T01:21:54.219Z,96880.56
2018-07-30T01:26:48.673Z,96882.48
2018-07-30T01:31:43.146Z,96892.34
2018-07-30T01:36:37.608Z,96888.41
2018-07-30T01:41:32.100Z,96885.48
2018-07-30T01:46:26.583Z,96893.55
2018-07-30T01:51:21.035Z,96895.73
2018-07-30T01:56:15.449Z,96898.13
2018-07-30T02:01:09.918Z,96896.83
2018-07-30T02:06:04.408Z,96894.45
2018-07-30T02:10:58.973Z,96904.30
2018-07-30T02:15:53.440Z,96907.75
2018-07-30T02:20:47.883Z,96909.47
2018-07-30T02:25:42.368Z,96915.67
2018-07-30T02:30:36.796Z,96918.19
2018-07-30T02:35:31.262Z,96918.75
2018-07-30T02:40:25.391Z,96913.77
2018-07-30T02:45:19.864Z,96919.98
2018-07-30T02:50:14.347Z,96921.59
2018-07-30T02:55:08.810Z,96924.26
2018-07-30T03:00:03.281Z,96925.91
2018-07-30T03:04:57.730Z,96923.83
2018-07-30T03:09:52.261Z,96929.48
2018-07-30T03:14:46.720Z,96928.45
2018-07-30T03:19:41.202Z,96939.12
2018-07-30T03:24:35.679Z,96928.00
2018-07-30T03:29:30.137Z,96940.78
2018-07-30T03:34:24.602Z,96941.88
2018-07-30T03:39:19.058Z,96952.30
2018-07-30T03:44:13.586Z,96945.39
2018-07-30T03:49:08.029Z,96953.13
2018-07-30T03:54:02.482Z,96959.27
2018-07-30T03:58:56.960Z,96966.72
2018-07-30T04:03:51.501Z,96965.14
2018-07-30T04:08:45.984Z,96962.23
2018-07-30T04:13:40.435Z,96969.09
2018-07-30T04:18:34.883Z,96970.11
2018-07-30T04:23:29.353Z,96973.41
2018-07-30T04:28:23.797Z,96971.95
2018-07-30T04:33:18.245Z,96962.94
2018-07-30T04:38:12.699Z,96969.84
2018-07-30T04:43:07.126Z,96969.45
2018-07-30T04:48:01.556Z,96962.91
2018-07-30T04:52:56.170Z,96965.31
2018-07-30T04:57:51.438Z,96965.61
2018-07-30T05:02:45.897Z,96960.33
2018-07-30T05:07:40.356Z,96963.13
2018-07-30T05:12:34.817Z,96962.56
2018-07-30T05:17:29.299Z,96969.31
2018-07-30T05:22:23.833Z,96969.42
2018-07-30T05:27:18.000Z,96963.22
2018-07-30T05:32:12.565Z,96969.91
2018-07-30T05:37:07.150Z,96970.48
2018-07-30T05:42:01.663Z,96965.76
2018-07-30T05:46:56.194Z,96966.06
2018-07-30T05:51:50.876Z,96957.66
2018-07-30T05:56:45.482Z,96958.36
2018-07-30T06:01:40.093Z,96961.23
2018-07-30T06:06:34.612Z,96971.11
2018-07-30T06:11:29.229Z,96973.09
2018-07-30T06:16:23.772Z,96975.58
2018-07-30T06:21:18.401Z,96968.77
2018-07-30T06:26:13.144Z,96972.45
2018-07-30T06:31:19.258Z,96975.52
2018-07-30T06:36:14.667Z,96976.19
2018-07-30T06:41:08.894Z,96989.45
2018-07-30T06:46:03.399Z,96986.02
2018-07-30T06:50:58.005Z,96988.08
2018-07-30T06:55:52.748Z,96992.06
2018-07-30T07:00:47.516Z,96992.14
2018-07-30T07:05:42.117Z,96997.60
2018-07-30T07:10:36.697Z,96995.09
2018-07-30T07:15:31.339Z,96994.86
2018-07-30T07:20:25.908Z,96993.17
2018-07-30T07:25:20.596Z,97001.12
2018-07-30T07:30:15.746Z,96994.14
2018-07-30T07:35:10.446Z,96995.53
2018-07-30T07:45:09.276Z,96995.31
2018-07-30T07:50:03.975Z,96993.56
2018-07-30T07:55:00.183Z,96995.90
2018-07-30T07:59:54.765Z,96996.25
2018-07-30T08:04:49.223Z,97007.73
2018-07-30T08:14:46.700Z,97001.55
2018-07-30T08:19:40.216Z,96996.70
2018-07-30T08:24:38.705Z,96991.05
2018-07-30T08:29:32.377Z,96992.86
2018-07-30T08:34:25.526Z,96985.42
2018-07-30T08:39:18.706Z,96986.09
2018-07-30T08:44:11.839Z,96985.06
2018-07-30T08:49:05.536Z,96974.36
2018-07-30T08:53:58.670Z,96975.18
2018-07-30T08:58:56.056Z,96973.15
2018-07-30T09:04:01.027Z,96970.51
2018-07-30T09:08:54.948Z,96974.14
2018-07-30T09:13:48.383Z,96967.23
2018-07-30T09:18:41.967Z,96962.69
2018-07-30T09:23:35.112Z,96963.04
2018-07-30T09:28:28.220Z,96960.05
2018-07-30T09:33:22.041Z,96955.77
2018-07-30T09:38:19.307Z,96954.38
2018-07-30T09:43:26.714Z,96948.86
2018-07-30T09:48:19.950Z,96952.59
2018-07-30T09:53:12.978Z,96950.48
2018-07-30T09:58:05.981Z,96958.02
2018-07-30T10:02:58.999Z,96947.65
2018-07-30T10:07:52.248Z,96952.00
2018-07-30T10:12:45.298Z,96942.09
2018-07-30T10:17:38.550Z,96935.28
2018-07-30T10:22:31.565Z,96936.00
2018-07-30T10:27:24.698Z,96935.88
2018-07-30T10:32:17.769Z,96929.17
2018-07-30T10:37:10.928Z,96927.93
2018-07-30T10:42:05.435Z,96930.95
2018-07-30T10:46:58.558Z,96926.36
2018-07-30T10:51:51.692Z,96923.69
2018-07-30T10:56:44.706Z,96920.84
2018-07-30T11:01:39.137Z,96909.90
2018-07-30T11:06:32.260Z,96910.27
2018-07-30T11:11:25.413Z,96900.16
2018-07-30T11:16:18.792Z,96901.67
2018-07-30T11:21:11.891Z,96893.22
2018-07-30T11:26:05.095Z,96893.24
2018-07-30T11:30:58.238Z,96884.28
2018-07-30T11:35:51.337Z,96880.09
2018-07-30T11:40:44.339Z,96878.84
2018-07-30T11:45:37.630Z,96873.14
2018-07-30T11:50:30.692Z,96869.69
2018-07-30T11:55:23.874Z,96867.84
2018-07-30T12:00:16.933Z,96868.21
2018-07-30T12:05:10.486Z,96872.83
2018-07-30T12:10:03.993Z,96870.84
2018-07-30T12:14:57.563Z,96856.19
2018-07-30T12:19:50.900Z,96850.77
2018-07-30T12:24:44.070Z,96853.37
2018-07-30T12:29:37.189Z,96848.56
2018-07-30T12:34:32.090Z,96839.59
2018-07-30T12:39:25.263Z,96833.70
2018-07-30T12:44:18.484Z,96822.55
2018-07-30T12:49:11.680Z,96826.42
2018-07-30T12:54:04.718Z,96829.14
2018-07-30T12:58:58.236Z,96830.45
2018-07-30T13:03:52.682Z,96817.88
2018-07-30T13:08:45.780Z,96816.84
2018-07-30T13:13:38.891Z,96808.25
2018-07-30T13:18:51.191Z,96798.72
2018-07-30T13:23:44.310Z,96798.80
2018-07-30T13:28:37.427Z,96794.70
2018-07-30T13:33:30.569Z,96796.97
2018-07-30T13:38:23.665Z,96788.50
2018-07-30T13:43:16.686Z,96787.47
2018-07-30T13:48:16.926Z,96782.20
2018-07-30T13:53:10.116Z,96782.09
2018-07-30T13:58:05.738Z,96785.20
2018-07-30T14:03:00.913Z,96778.79
2018-07-30T14:07:54.321Z,96773.06
2018-07-30T14:12:47.736Z,96769.19
2018-07-30T14:17:43.180Z,96771.66
2018-07-30T14:22:36.456Z,96762.47
2018-07-30T14:27:29.489Z,96759.79
2018-07-30T14:32:22.766Z,96753.80
2018-07-30T14:37:15.904Z,96760.64
2018-07-30T14:42:10.238Z,96760.05
2018-07-30T14:47:03.334Z,96751.08
2018-07-30T14:51:56.469Z,96743.50
2018-07-30T14:56:51.083Z,96746.17
2018-07-30T15:01:44.131Z,96743.92
2018-07-30T15:06:37.083Z,96739.45
2018-07-30T15:11:30.100Z,96729.72
2018-07-30T15:16:23.520Z,96732.73
2018-07-30T15:21:16.477Z,96729.84
2018-07-30T15:26:09.577Z,96726.45
2018-07-30T15:31:02.720Z,96722.78
2018-07-30T15:35:55.771Z,96724.53
2018-07-30T15:40:48.931Z,96721.98
2018-07-30T15:45:41.999Z,96724.44
2018-07-30T15:50:35.005Z,96724.91
2018-07-30T15:55:28.037Z,96724.06
2018-07-30T16:00:21.105Z,96720.31
2018-07-30T16:05:15.757Z,96718.91
2018-07-30T16:10:08.796Z,96717.47
2018-07-30T16:15:01.956Z,96715.73
2018-07-30T16:19:55.028Z,96725.98
2018-07-30T16:24:48.162Z,96715.11
2018-07-30T16:29:41.122Z,96717.08
2018-07-30T16:34:34.201Z,96716.63
2018-07-30T16:39:27.316Z,96724.02
2018-07-30T16:44:20.390Z,96722.87
2018-07-30T16:49:13.424Z,96724.06
2018-07-30T16:54:06.463Z,96718.09
2018-07-30T16:58:59.544Z,96728.13
2018-07-30T17:03:52.570Z,96725.94
2018-07-30T17:08:45.608Z,96725.72
2018-07-30T17:13:38.657Z,96728.17
2018-07-30T17:18:31.607Z,96735.82
2018-07-30T17:23:24.635Z,96738.42
2018-07-30T17:28:17.706Z,96740.58
2018-07-30T17:33:10.720Z,96746.52
2018-07-30T17:38:03.877Z,96744.23
2018-07-30T17:42:56.915Z,96744.29
2018-07-30T17:47:49.912Z,96747.21
2018-07-30T17:52:42.999Z,96747.09
2018-07-30T17:57:36.037Z,96759.11
2018-07-30T18:02:29.046Z,96753.42
2018-07-30T18:07:22.041Z,96755.31
2018-07-30T18:12:15.135Z,96761.70
2018-07-30T18:17:08.168Z,96767.47
2018-07-30T18:22:01.153Z,96772.94
2018-07-30T18:26:54.172Z,96776.57
2018-07-30T18:31:47.599Z,96773.23
2018-07-30T18:36:40.597Z,96780.34
2018-07-30T18:41:33.662Z,96786.08
2018-07-30T18:46:26.700Z,96788.88
2018-07-30T18:51:19.691Z,96794.03
2018-07-30T18:56:12.720Z,96800.66
2018-07-30T19:01:05.824Z,96800.44
2018-07-30T19:05:58.836Z,96804.29
2018-07-30T19:10:51.869Z,96812.81
2018-07-30T19:15:44.949Z,96810.09
2018-07-30T19:20:38.000Z,96814.87
2018-07-30T19:25:31.048Z,96815.81
2018-07-30T19:30:24.084Z,96819.88
2018-07-30T19:35:17.176Z,96830.83
2018-07-30T19:40:10.246Z,96841.25
2018-07-30T19:45:03.787Z,96846.67
2018-07-30T19:49:56.783Z,96847.19
2018-07-30T19:54:50.142Z,96851.70
2018-07-30T19:59:43.160Z,96854.77
2018-07-30T20:04:36.236Z,96862.16
2018-07-30T20:09:29.264Z,96865.64
2018-07-30T20:14:22.272Z,96864.98
2018-07-30T20:19:15.217Z,96871.45
2018-07-30T20:24:08.260Z,96872.45
2018-07-30T20:29:01.299Z,96871.96
2018-07-30T20:33:56.281Z,96885.81
2018-07-30T20:38:49.308Z,96891.27
2018-07-30T20:43:42.297Z,96887.09
2018-07-30T20:48:35.350Z,96888.59
2018-07-30T20:53:28.376Z,96899.28
2018-07-30T20:58:21.421Z,96895.55
2018-07-30T21:03:14.461Z,96892.05
2018-07-30T21:08:07.578Z,96895.84
2018-07-30T21:13:00.644Z,96906.09
2018-07-30T21:17:53.664Z,96906.73
2018-07-30T21:22:46.684Z,96912.88
2018-07-30T21:27:39.699Z,96915.23
2018-07-30T21:32:32.716Z,96912.63
2018-07-30T21:37:25.833Z,96908.41
2018-07-30T21:42:18.892Z,96905.77
2018-07-30T21:47:11.949Z,96911.41
2018-07-30T21:52:05.128Z,96900.75
2018-07-30T21:56:58.137Z,96915.31
2018-07-30T22:01:51.260Z,96906.73
2018-07-30T22:06:44.284Z,96909.69
2018-07-30T22:11:37.411Z,96902.68
2018-07-30T22:16:30.425Z,96901.33
2018-07-30T22:21:23.447Z,96907.88
2018-07-30T22:26:16.455Z,96901.41
2018-07-30T22:31:09.487Z,96909.76
2018-07-30T22:36:02.476Z,96905.95
2018-07-30T22:40:55.477Z,96902.06
2018-07-30T22:45:48.547Z,96903.61
2018-07-30T22:50:41.662Z,96902.36
2018-07-30T22:55:34.665Z,96904.38
2018-07-30T23:00:27.697Z,96901.44
2018-07-30T23:05:20.780Z,96904.26
2018-07-30T23:10:13.764Z,96910.59
2018-07-30T23:15:06.836Z,96912.58
2018-07-30T23:19:59.904Z,96910.64
2018-07-30T23:24:52.997Z,96902.11
2018-07-30T23:29:45.996Z,96906.91
2018-07-30T23:34:38.979Z,96902.71
2018-07-30T23:39:31.974Z,96900.67
2018-07-30T23:44:25.035Z,96886.16
2018-07-30T23:49:18.028Z,96889.22
2018-07-30T23:54:11.099Z,96887.00
2018-07-30T23:59:04.262Z,96892.35
